Time;durP1;ratioP1;P1;durP2;ratioP2;P2;SDS_P1;SDS_P2;PMS_P1;PMS_P2;Temp;Humidity;BMP_temperature;BMP_pressure;BME280_temperature;BME280_humidity;BME280_pressure;Samples;Min_cycle;Max_cycle;Signal;HPM_P1;HPM_P2
2021/07/04 00:00:43;;;;;;;2.60;2.40;;;24.80;58.40;;;;;;4980812;28;20220;-69
2021/07/04 00:03:12;;;;;;;2.43;2.23;;;24.80;58.50;;;;;;4981706;28;20189;-70
2021/07/04 00:05:47;;;;;;;2.70;2.50;;;24.80;58.70;;;;;;4988893;28;20212;-69
2021/07/04 00:08:35;;;;;;;2.70;2.50;;;24.80;59.30;;;;;;4982664;28;20226;-69
2021/07/04 00:11:08;;;;;;;2.77;2.57;;;24.80;58.70;;;;;;4973469;28;20208;-69
2021/07/04 00:13:39;;;;;;;2.70;2.50;;;24.80;58.70;;;;;;4988632;28;20283;-69
2021/07/04 00:16:07;;;;;;;2.57;2.37;;;24.70;58.60;;;;;;4986721;28;20209;-69
2021/07/04 00:18:35;;;;;;;2.43;2.23;;;24.70;58.70;;;;;;4975156;28;20203;-69
2021/07/04 00:21:07;;;;;;;2.50;2.30;;;24.70;58.70;;;;;;4968166;28;20216;-70
2021/07/04 00:23:36;;;;;;;3.13;2.20;;;24.70;58.70;;;;;;4986074;28;20213;-69
2021/07/04 00:26:05;;;;;;;2.60;2.40;;;24.70;58.70;;;;;;4987974;28;20211;-69
2021/07/04 00:28:34;;;;;;;2.53;2.30;;;24.70;58.70;;;;;;4981945;28;20231;-69
2021/07/04 00:31:02;;;;;;;2.73;2.37;;;24.70;58.80;;;;;;4978201;28;20646;-69
2021/07/04 00:33:31;;;;;;;2.63;2.43;;;24.70;58.80;;;;;;4986385;28;20250;-69
2021/07/04 00:36:00;;;;;;;2.50;2.30;;;24.70;58.80;;;;;;4984829;28;20268;-68
2021/07/04 00:38:28;;;;;;;2.53;2.33;;;24.70;58.80;;;;;;4989890;28;20197;-68
2021/07/04 00:40:58;;;;;;;2.50;2.30;;;24.70;58.80;;;;;;4986088;28;20199;-69
2021/07/04 00:43:27;;;;;;;2.50;2.30;;;24.70;58.70;;;;;;4987820;28;20200;-69
2021/07/04 00:45:57;;;;;;;2.77;2.57;;;24.70;58.60;;;;;;4984562;28;20653;-68
2021/07/04 00:48:32;;;;;;;2.57;2.37;;;24.60;58.50;;;;;;4987424;28;20211;-69
2021/07/04 00:51:02;;;;;;;3.00;2.70;;;24.60;58.60;;;;;;4985893;28;20208;-69
2021/07/04 00:53:33;;;;;;;3.07;2.80;;;24.60;58.60;;;;;;4988825;28;20216;-69
2021/07/04 00:56:00;;;;;;;2.70;2.50;;;24.60;58.80;;;;;;4984112;28;20221;-69
2021/07/04 00:58:31;;;;;;;2.90;2.63;;;24.60;58.80;;;;;;4968337;28;20575;-69
2021/07/04 01:01:02;;;;;;;2.60;2.40;;;24.60;58.90;;;;;;4984245;28;20279;-69
2021/07/04 01:03:30;;;;;;;2.97;2.77;;;24.60;59.00;;;;;;4991474;28;20208;-68
2021/07/04 01:05:58;;;;;;;3.30;3.00;;;24.60;59.00;;;;;;4987802;28;20208;-69
2021/07/04 01:08:27;;;;;;;2.80;2.50;;;24.60;59.00;;;;;;4989352;28;20216;-69
2021/07/04 01:10:55;;;;;;;2.53;2.33;;;24.60;59.00;;;;;;4985069;28;20203;-69
2021/07/04 01:13:26;;;;;;;2.70;2.50;;;24.60;58.90;;;;;;4983929;28;20216;-69
2021/07/04 01:15:55;;;;;;;2.93;2.73;;;24.60;58.90;;;;;;4990470;28;20201;-69
2021/07/04 01:18:24;;;;;;;2.60;2.40;;;24.60;59.00;;;;;;4985549;28;20507;-69
2021/07/04 01:20:52;;;;;;;2.77;2.57;;;24.60;59.00;;;;;;4983365;28;20227;-69
2021/07/04 01:23:24;;;;;;;2.83;2.63;;;24.60;59.10;;;;;;4985431;28;20633;-69
2021/07/04 01:25:55;;;;;;;2.93;2.63;;;24.60;59.20;;;;;;4984871;28;20205;-69
2021/07/04 01:28:24;;;;;;;3.23;2.60;;;24.50;59.20;;;;;;4978536;28;20679;-69
2021/07/04 01:30:58;;;;;;;2.70;2.50;;;24.60;59.20;;;;;;4986704;28;20204;-69
2021/07/04 01:33:30;;;;;;;3.00;2.80;;;24.50;59.30;;;;;;4988595;28;20240;-69
2021/07/04 01:35:58;;;;;;;3.10;2.90;;;24.50;59.30;;;;;;4985306;28;20267;-69
2021/07/04 01:38:27;;;;;;;2.73;2.53;;;24.50;59.30;;;;;;4990509;28;20197;-69
2021/07/04 01:40:55;;;;;;;3.27;3.03;;;24.50;59.40;;;;;;4987455;28;20197;-69
2021/07/04 01:43:22;;;;;;;2.67;2.47;;;24.50;59.30;;;;;;4987750;28;20206;-69
2021/07/04 01:45:49;;;;;;;3.00;2.80;;;24.50;59.40;;;;;;4984552;28;20224;-69
2021/07/04 01:48:21;;;;;;;2.83;2.63;;;24.50;59.50;;;;;;4986144;28;20207;-69
2021/07/04 01:50:52;;;;;;;3.13;2.77;;;24.50;59.40;;;;;;4985537;28;20223;-69
2021/07/04 01:53:20;;;;;;;2.63;2.43;;;24.50;59.50;;;;;;4991246;28;20197;-69
2021/07/04 01:55:50;;;;;;;2.77;2.57;;;24.50;59.50;;;;;;4986812;28;20197;-69
2021/07/04 01:58:16;;;;;;;2.77;2.57;;;24.50;59.50;;;;;;4964523;28;20553;-69
2021/07/04 02:00:45;;;;;;;3.30;3.10;;;24.50;59.50;;;;;;4990982;28;20212;-69
2021/07/04 02:03:13;;;;;;;3.37;3.07;;;24.40;59.50;;;;;;4988261;28;20212;-69
2021/07/04 02:05:41;;;;;;;3.27;3.07;;;24.50;59.50;;;;;;4986385;28;20308;-69
2021/07/04 02:08:12;;;;;;;2.80;2.60;;;24.50;59.60;;;;;;4992004;28;20199;-69
2021/07/04 02:10:44;;;;;;;3.20;3.00;;;24.40;59.50;;;;;;4985745;28;20267;-69
2021/07/04 02:13:15;;;;;;;3.10;2.90;;;24.40;59.50;;;;;;4980470;28;20201;-69
2021/07/04 02:15:44;;;;;;;3.30;3.00;;;24.40;59.50;;;;;;4992401;28;20230;-69
2021/07/04 02:18:26;;;;;;;2.90;2.70;;;24.40;59.50;;;;;;4981874;28;20224;-69
2021/07/04 02:20:57;;;;;;;3.37;3.13;;;24.40;59.60;;;;;;4969496;28;20209;-70
2021/07/04 02:23:31;;;;;;;3.10;2.90;;;24.40;59.60;;;;;;4988262;28;20235;-69
2021/07/04 02:25:58;;;;;;;3.27;2.97;;;24.40;59.50;;;;;;4985509;28;20247;-69
2021/07/04 02:28:32;;;;;;;3.23;2.93;;;24.40;59.60;;;;;;4987032;28;20192;-69
2021/07/04 02:31:02;;;;;;;3.10;2.80;;;24.40;59.50;;;;;;4982992;28;20223;-70
2021/07/04 02:33:31;;;;;;;3.00;2.80;;;24.40;59.50;;;;;;4982251;28;20196;-69
2021/07/04 02:36:01;;;;;;;3.10;2.80;;;24.40;59.70;;;;;;4974343;28;20221;-68
2021/07/04 02:38:31;;;;;;;3.17;2.90;;;24.40;59.60;;;;;;4988227;28;20279;-68
2021/07/04 02:41:02;;;;;;;3.07;2.77;;;24.40;59.60;;;;;;4985850;28;20207;-69
2021/07/04 02:43:32;;;;;;;3.30;3.10;;;24.40;59.50;;;;;;4982882;28;20204;-69
2021/07/04 02:46:03;;;;;;;3.00;2.80;;;24.40;59.60;;;;;;4984312;28;20231;-69
2021/07/04 02:48:32;;;;;;;3.00;2.80;;;24.40;59.50;;;;;;4984990;28;20220;-74
2021/07/04 02:51:00;;;;;;;3.10;2.90;;;24.40;59.60;;;;;;4977156;28;20701;-69
2021/07/04 02:53:27;;;;;;;3.13;2.87;;;24.40;59.60;;;;;;4984773;28;20208;-69
2021/07/04 02:55:58;;;;;;;3.10;2.80;;;24.40;59.50;;;;;;4983387;28;20614;-69
2021/07/04 02:58:25;;;;;;;2.87;2.67;;;24.40;59.60;;;;;;4976688;28;20197;-69
2021/07/04 03:00:55;;;;;;;3.23;2.97;;;24.30;59.40;;;;;;4988341;28;20207;-69
2021/07/04 03:03:29;;;;;;;3.40;3.20;;;24.40;59.50;;;;;;4984137;28;20291;-69
2021/07/04 03:05:57;;;;;;;2.97;2.77;;;24.40;59.60;;;;;;4978176;28;20212;-69
2021/07/04 03:08:25;;;;;;;3.53;3.30;;;24.30;59.50;;;;;;4988287;28;20291;-69
2021/07/04 03:10:54;;;;;;;3.00;2.80;;;24.30;59.60;;;;;;4979662;28;20201;-69
2021/07/04 03:13:23;;;;;;;3.40;3.10;;;24.30;59.60;;;;;;4985416;28;20235;-69
2021/07/04 03:15:51;;;;;;;3.07;2.80;;;24.30;59.50;;;;;;4986378;28;20197;-69
2021/07/04 03:18:23;;;;;;;3.20;3.00;;;24.30;59.50;;;;;;4982220;28;20211;-69
2021/07/04 03:20:54;;;;;;;3.10;2.90;;;24.30;59.50;;;;;;4984532;28;20198;-69
2021/07/04 03:23:24;;;;;;;3.17;2.90;;;24.30;59.50;;;;;;4979497;28;20524;-69
2021/07/04 03:25:55;;;;;;;3.57;3.27;;;24.30;59.70;;;;;;4983444;28;20239;-69
2021/07/04 03:28:25;;;;;;;3.37;3.07;;;24.30;59.60;;;;;;4988880;28;20209;-70
2021/07/04 03:30:53;;;;;;;3.30;3.00;;;24.30;59.50;;;;;;4987904;28;20211;-70
2021/07/04 03:33:22;;;;;;;4.20;3.00;;;24.30;59.70;;;;;;4985051;28;20215;-70
2021/07/04 03:35:50;;;;;;;3.30;3.10;;;24.30;59.50;;;;;;4986541;28;20247;-69
2021/07/04 03:38:20;;;;;;;3.03;2.83;;;24.30;59.70;;;;;;4987580;28;20282;-70
2021/07/04 03:40:47;;;;;;;3.63;3.30;;;24.30;59.70;;;;;;4984497;28;20197;-69
2021/07/04 03:43:15;;;;;;;2.50;2.37;;;24.30;59.60;;;;;;4976547;28;20201;-69
2021/07/04 03:45:47;;;;;;;3.10;2.80;;;24.30;59.60;;;;;;4988198;28;20207;-70
2021/07/04 03:48:14;;;;;;;3.77;3.00;;;24.30;59.70;;;;;;4977456;28;20205;-70
2021/07/04 03:50:44;;;;;;;3.20;3.00;;;24.30;59.70;;;;;;4981563;28;20204;-70
2021/07/04 03:53:12;;;;;;;2.80;2.60;;;24.30;59.70;;;;;;4985656;28;20212;-69
2021/07/04 03:55:43;;;;;;;3.00;2.70;;;24.30;59.80;;;;;;4983417;28;20605;-66
2021/07/04 03:58:13;;;;;;;2.90;2.70;;;24.20;59.70;;;;;;4973978;28;20298;-66
2021/07/04 04:00:40;;;;;;;2.83;2.63;;;24.30;59.70;;;;;;4986183;28;20618;-66
2021/07/04 04:03:15;;;;;;;2.80;2.60;;;24.20;59.60;;;;;;4979461;28;20207;-66
2021/07/04 04:05:43;;;;;;;3.33;3.07;;;24.30;59.60;;;;;;4976642;28;20209;-69
2021/07/04 04:08:11;;;;;;;2.60;2.40;;;24.20;59.50;;;;;;4988058;28;20246;-69
2021/07/04 04:10:40;;;;;;;2.93;2.73;;;24.20;59.60;;;;;;4983979;28;20826;-69
2021/07/04 04:13:19;;;;;;;2.80;2.60;;;24.30;59.60;;;;;;4983095;28;20717;-69
2021/07/04 04:15:51;;;;;;;2.97;2.70;;;24.20;59.60;;;;;;4992274;28;20270;-67
2021/07/04 04:18:21;;;;;;;3.00;2.80;;;24.30;59.60;;;;;;4991490;28;20220;-67
2021/07/04 04:20:52;;;;;;;4.63;2.73;;;24.30;59.50;;;;;;4990373;28;20201;-66
2021/07/04 04:23:27;;;;;;;3.27;3.07;;;24.30;59.50;;;;;;4987242;28;20200;-66
2021/07/04 04:25:57;;;;;;;2.90;2.70;;;24.20;59.40;;;;;;4989546;28;20204;-67
2021/07/04 04:28:31;;;;;;;2.90;2.70;;;24.20;59.40;;;;;;4991123;28;20200;-67
2021/07/04 04:31:01;;;;;;;3.20;3.00;;;24.20;59.30;;;;;;4985745;28;20290;-68
2021/07/04 04:33:29;;;;;;;3.00;2.80;;;24.20;59.30;;;;;;4990025;28;20207;-67
2021/07/04 04:35:57;;;;;;;2.90;2.70;;;24.20;59.30;;;;;;4982136;28;20247;-66
2021/07/04 04:38:25;;;;;;;2.80;2.60;;;24.20;59.30;;;;;;4983115;28;20686;-66
2021/07/04 04:40:54;;;;;;;3.30;3.10;;;24.20;59.30;;;;;;4990782;28;20207;-66
2021/07/04 04:43:24;;;;;;;3.00;2.80;;;24.20;59.30;;;;;;4992213;28;20200;-66
2021/07/04 04:45:52;;;;;;;2.93;2.73;;;24.20;59.30;;;;;;4988598;28;20204;-68
2021/07/04 04:48:23;;;;;;;3.10;2.90;;;24.20;59.20;;;;;;4988066;28;20201;-69
2021/07/04 04:50:53;;;;;;;4.13;2.70;;;24.20;59.10;;;;;;4986493;28;20216;-66
2021/07/04 04:53:23;;;;;;;3.27;3.07;;;24.20;59.20;;;;;;4985079;28;20239;-66
2021/07/04 04:55:54;;;;;;;3.10;2.90;;;24.20;59.20;;;;;;4981256;28;20275;-68
2021/07/04 04:58:25;;;;;;;3.17;2.97;;;24.20;59.00;;;;;;4992511;28;20205;-69
2021/07/04 05:00:56;;;;;;;2.93;2.63;;;24.20;59.10;;;;;;4985083;28;20203;-69
2021/07/04 05:03:25;;;;;;;3.70;3.40;;;24.20;59.10;;;;;;4987378;28;20205;-69
2021/07/04 05:06:08;;;;;;;3.40;3.10;;;24.20;59.10;;;;;;4991934;28;20291;-69
2021/07/04 05:08:54;;;;;;;4.03;2.73;;;24.20;59.10;;;;;;4986862;28;20216;-69
2021/07/04 05:11:22;;;;;;;3.03;2.83;;;24.20;59.00;;;;;;4983459;28;21578;-66
2021/07/04 05:13:51;;;;;;;2.83;2.63;;;24.20;59.10;;;;;;4991395;28;20204;-66
2021/07/04 05:16:21;;;;;;;3.10;2.90;;;24.20;59.10;;;;;;4987639;28;20223;-67
2021/07/04 05:18:49;;;;;;;2.90;2.70;;;24.20;58.90;;;;;;4985418;28;20208;-67
2021/07/04 05:21:21;;;;;;;3.20;3.00;;;24.20;58.90;;;;;;4983671;28;20204;-68
2021/07/04 05:23:51;;;;;;;3.10;2.87;;;24.20;58.80;;;;;;4986685;28;20294;-67
2021/07/04 05:26:21;;;;;;;3.00;2.80;;;24.20;58.90;;;;;;4983515;28;20217;-69
2021/07/04 05:28:51;;;;;;;3.30;2.83;;;24.20;59.00;;;;;;4981935;28;20207;-69
2021/07/04 05:31:18;;;;;;;3.03;2.83;;;24.20;59.00;;;;;;4986905;28;20213;-69
2021/07/04 05:33:46;;;;;;;3.03;2.83;;;24.20;58.90;;;;;;4985940;28;20209;-69
2021/07/04 05:36:13;;;;;;;2.97;2.77;;;24.20;58.90;;;;;;4991023;28;20228;-69
2021/07/04 05:38:43;;;;;;;3.17;2.97;;;24.10;58.80;;;;;;4986249;28;20204;-70
2021/07/04 05:41:14;;;;;;;3.10;2.90;;;24.10;58.80;;;;;;4976308;28;20200;-69
2021/07/04 05:43:45;;;;;;;3.30;3.10;;;24.10;58.80;;;;;;4979438;28;20208;-70
2021/07/04 05:46:13;;;;;;;3.33;3.13;;;24.10;58.80;;;;;;4978297;28;20201;-66
2021/07/04 05:48:44;;;;;;;3.40;3.17;;;24.10;58.80;;;;;;4982291;28;20260;-66
2021/07/04 05:51:14;;;;;;;3.17;2.97;;;24.10;58.90;;;;;;4991189;28;20196;-67
2021/07/04 05:53:44;;;;;;;3.40;3.10;;;24.10;58.80;;;;;;4985726;28;20231;-67
2021/07/04 05:56:12;;;;;;;3.43;3.13;;;24.20;59.00;;;;;;4982165;28;20827;-68
2021/07/04 05:58:43;;;;;;;3.93;3.23;;;24.10;59.00;;;;;;4978992;28;20231;-67
2021/07/04 06:01:11;;;;;;;3.83;3.53;;;24.10;58.90;;;;;;4993620;28;20208;-67
2021/07/04 06:03:40;;;;;;;3.97;3.67;;;24.20;58.90;;;;;;4984869;28;20245;-66
2021/07/04 06:06:08;;;;;;;7.23;6.53;;;24.10;59.00;;;;;;4986678;28;20304;-65
2021/07/04 06:08:38;;;;;;;9.70;8.73;;;24.20;59.20;;;;;;4982601;28;20212;-65
2021/07/04 06:11:06;;;;;;;10.80;9.63;;;24.20;60.00;;;;;;4982523;28;20214;-66
2021/07/04 06:13:36;;;;;;;12.57;11.07;;;24.20;60.20;;;;;;4980959;28;20208;-67
2021/07/04 06:16:07;;;;;;;13.77;11.53;;;24.20;60.50;;;;;;4981875;28;20300;-68
2021/07/04 06:18:37;;;;;;;14.27;12.37;;;24.20;60.60;;;;;;4983254;28;20209;-65
2021/07/04 06:21:06;;;;;;;15.37;13.40;;;24.30;60.90;;;;;;4988998;28;20531;-66
2021/07/04 06:23:38;;;;;;;15.17;13.47;;;24.30;61.30;;;;;;4979414;28;20855;-64
2021/07/04 06:26:06;;;;;;;14.90;13.37;;;24.30;61.00;;;;;;4980137;28;20268;-65
2021/07/04 06:28:34;;;;;;;18.30;16.10;;;24.30;60.70;;;;;;4987067;28;20631;-66
2021/07/04 06:31:01;;;;;;;18.33;15.30;;;24.30;61.50;;;;;;4985116;28;20207;-65
2021/07/04 06:33:31;;;;;;;17.07;15.23;;;24.30;61.00;;;;;;4982685;28;20212;-66
2021/07/04 06:35:58;;;;;;;19.13;16.23;;;24.40;61.30;;;;;;4987055;28;20255;-67
2021/07/04 06:38:28;;;;;;;16.27;13.90;;;24.40;61.50;;;;;;4983906;28;20267;-67
2021/07/04 06:40:55;;;;;;;20.10;16.83;;;24.40;61.70;;;;;;4984813;28;20199;-65
2021/07/04 06:43:24;;;;;;;21.93;18.50;;;24.40;61.70;;;;;;4982036;28;20326;-64
2021/07/04 06:45:53;;;;;;;21.37;16.27;;;24.40;61.60;;;;;;4985395;28;20204;-66
2021/07/04 06:48:22;;;;;;;18.87;16.47;;;24.40;61.60;;;;;;4986793;28;20204;-66
2021/07/04 06:50:50;;;;;;;18.37;15.87;;;24.40;61.40;;;;;;4987431;28;20208;-67
2021/07/04 06:53:20;;;;;;;18.97;16.67;;;24.40;61.30;;;;;;4981589;28;20396;-64
2021/07/04 06:55:51;;;;;;;20.80;17.07;;;24.50;61.20;;;;;;4984048;28;20229;-64
2021/07/04 06:58:20;;;;;;;20.43;17.10;;;24.50;60.90;;;;;;4981532;28;20209;-63
2021/07/04 07:00:47;;;;;;;21.27;17.70;;;24.50;61.00;;;;;;4988615;28;20286;-64
2021/07/04 07:03:15;;;;;;;20.83;18.53;;;24.60;61.00;;;;;;4978550;28;20220;-64
2021/07/04 07:05:46;;;;;;;22.67;19.70;;;24.60;61.00;;;;;;4981296;28;20201;-65
2021/07/04 07:08:14;;;;;;;24.53;19.23;;;24.60;61.10;;;;;;4981419;28;20262;-64
2021/07/04 07:10:45;;;;;;;22.37;19.67;;;24.60;61.10;;;;;;4978472;28;20271;-65
2021/07/04 07:13:14;;;;;;;22.93;20.03;;;24.60;60.90;;;;;;4970717;28;20822;-65
2021/07/04 07:15:45;;;;;;;27.77;22.23;;;24.60;61.10;;;;;;4983412;28;20220;-65
2021/07/04 07:18:16;;;;;;;25.70;22.10;;;24.70;61.40;;;;;;4984160;28;20773;-65
2021/07/04 07:20:46;;;;;;;27.00;21.83;;;24.70;61.10;;;;;;4985725;28;20243;-65
2021/07/04 07:23:14;;;;;;;26.50;23.33;;;24.60;61.00;;;;;;4981035;28;20208;-66
2021/07/04 07:25:43;;;;;;;27.83;23.23;;;24.70;61.10;;;;;;4981009;28;20205;-65
2021/07/04 07:28:11;;;;;;;30.90;25.13;;;24.70;60.90;;;;;;4984453;28;20649;-65
2021/07/04 07:30:42;;;;;;;28.43;24.43;;;24.80;60.90;;;;;;4986190;28;20247;-65
2021/07/04 07:33:12;;;;;;;26.90;23.93;;;24.80;60.80;;;;;;4969744;28;20212;-66
2021/07/04 07:35:42;;;;;;;30.33;25.13;;;24.80;60.80;;;;;;4984025;28;20236;-66
2021/07/04 07:38:12;;;;;;;27.97;24.57;;;24.80;60.70;;;;;;4983894;28;20717;-66
2021/07/04 07:40:42;;;;;;;31.87;26.03;;;24.80;60.70;;;;;;4982870;28;20263;-65
2021/07/04 07:43:12;;;;;;;31.70;26.23;;;24.80;60.80;;;;;;4982744;28;20201;-65
2021/07/04 07:45:41;;;;;;;30.37;25.50;;;24.80;60.90;;;;;;4983361;28;20204;-66
2021/07/04 07:48:09;;;;;;;31.13;26.33;;;24.80;60.80;;;;;;4983824;28;20188;-65
2021/07/04 07:50:36;;;;;;;36.27;29.90;;;24.80;60.80;;;;;;4984595;28;20200;-65
2021/07/04 07:53:10;;;;;;;32.77;28.63;;;24.80;61.40;;;;;;4981023;28;20279;-65
2021/07/04 07:55:40;;;;;;;35.77;29.43;;;24.70;61.40;;;;;;4981048;28;20256;-65
2021/07/04 07:58:11;;;;;;;34.73;29.00;;;24.70;61.30;;;;;;4984272;28;20200;-64
2021/07/04 08:00:39;;;;;;;31.10;27.80;;;24.70;61.60;;;;;;4983308;28;20211;-64
2021/07/04 08:03:13;;;;;;;28.97;25.70;;;24.70;61.30;;;;;;4984285;28;20669;-64
2021/07/04 08:05:44;;;;;;;31.73;28.27;;;24.70;61.00;;;;;;4980828;28;20207;-66
2021/07/04 08:08:13;;;;;;;29.70;26.37;;;24.70;61.30;;;;;;4985194;28;20236;-66
2021/07/04 08:10:44;;;;;;;33.00;27.60;;;24.70;61.50;;;;;;4987570;28;20212;-65
2021/07/04 08:13:12;;;;;;;30.00;26.80;;;24.70;62.30;;;;;;4979404;28;20207;-64
2021/07/04 08:15:43;;;;;;;29.73;26.47;;;24.70;61.60;;;;;;4979722;28;20225;-64
2021/07/04 08:18:16;;;;;;;32.17;28.70;;;24.70;61.60;;;;;;4984436;28;20200;-64
2021/07/04 08:20:47;;;;;;;34.27;30.07;;;24.70;61.80;;;;;;4979179;28;20223;-64
2021/07/04 08:23:16;;;;;;;36.23;28.23;;;24.60;61.90;;;;;;4980684;28;20223;-62
2021/07/04 08:25:44;;;;;;;33.03;29.23;;;24.70;61.90;;;;;;4982794;28;20303;-64
2021/07/04 08:28:16;;;;;;;34.90;29.93;;;24.70;61.70;;;;;;4977811;28;20210;-63
2021/07/04 08:30:47;;;;;;;34.43;29.83;;;24.70;61.80;;;;;;4982002;28;20203;-64
2021/07/04 08:33:14;;;;;;;33.80;30.23;;;24.70;61.90;;;;;;4980673;28;20217;-62
2021/07/04 08:35:56;;;;;;;34.17;30.43;;;24.60;61.70;;;;;;4978870;28;20327;-64
2021/07/04 08:38:24;;;;;;;34.25;30.55;;;24.70;61.80;;;;;;4983912;28;20462;-67
2021/07/04 08:40:51;;;;;;;34.73;30.43;;;24.70;61.90;;;;;;4973347;28;20240;-66
2021/07/04 08:43:45;;;;;;;34.53;29.33;;;24.70;62.20;;;;;;4979383;28;20188;-65
2021/07/04 08:46:16;;;;;;;37.43;30.90;;;24.70;61.80;;;;;;4979480;28;20205;-66
2021/07/04 08:48:45;;;;;;;35.03;29.57;;;24.70;62.60;;;;;;4982252;28;20224;-65
2021/07/04 08:51:13;;;;;;;35.63;27.97;;;24.70;62.00;;;;;;4978942;28;20208;-66
2021/07/04 08:53:42;;;;;;;45.10;29.23;;;24.70;61.90;;;;;;4982443;28;20204;-64
2021/07/04 08:56:12;;;;;;;35.00;31.20;;;24.80;61.90;;;;;;4978087;28;20236;-67
2021/07/04 08:58:41;;;;;;;34.70;30.00;;;24.80;62.00;;;;;;4983311;28;20200;-64
2021/07/04 09:01:29;;;;;;;33.43;29.27;;;24.80;62.00;;;;;;4986411;28;20267;-66
2021/07/04 09:04:14;;;;;;;38.90;31.87;;;24.80;62.00;;;;;;4980814;28;20610;-67
2021/07/04 09:06:47;;;;;;;36.23;32.17;;;24.80;62.00;;;;;;4986682;28;20224;-66
2021/07/04 09:09:31;;;;;;;35.77;31.90;;;24.90;62.00;;;;;;4974410;28;20205;-66
2021/07/04 09:12:08;;;;;;;37.57;33.53;;;24.90;62.10;;;;;;4981258;28;20208;-66
2021/07/04 09:14:48;;;;;;;36.90;32.83;;;24.90;62.00;;;;;;4981531;28;20216;-66
2021/07/04 09:17:35;;;;;;;37.93;33.80;;;24.90;61.90;;;;;;4976845;28;20688;-65
2021/07/04 09:20:11;;;;;;;37.73;33.60;;;25.00;61.80;;;;;;4982522;28;20209;-64
2021/07/04 09:22:54;;;;;;;37.53;33.43;;;24.90;61.80;;;;;;4979151;28;20258;-65
2021/07/04 09:25:30;;;;;;;39.87;34.03;;;25.00;61.60;;;;;;4986450;28;20537;-65
2021/07/04 09:28:16;;;;;;;38.30;33.27;;;25.00;61.50;;;;;;4978996;28;20581;-63
2021/07/04 09:30:57;;;;;;;39.77;35.50;;;25.00;61.50;;;;;;4986322;28;20208;-64
2021/07/04 09:33:32;;;;;;;36.73;32.87;;;25.00;61.60;;;;;;4984844;28;20204;-65
2021/07/04 09:36:05;;;;;;;38.93;34.33;;;25.10;61.70;;;;;;4975856;28;20260;-65
2021/07/04 09:38:46;;;;;;;37.83;32.53;;;25.00;61.60;;;;;;4987246;28;20549;-65
2021/07/04 09:41:16;;;;;;;35.63;31.80;;;25.10;61.60;;;;;;4981264;28;20231;-64
2021/07/04 09:43:43;;;;;;;36.63;32.70;;;25.10;61.70;;;;;;4979396;28;20217;-63
2021/07/04 09:46:27;;;;;;;37.07;30.67;;;25.10;61.70;;;;;;4977704;28;20295;-63
2021/07/04 09:49:00;;;;;;;34.57;30.77;;;25.20;61.90;;;;;;4985603;28;20245;-62
2021/07/04 09:51:31;;;;;;;35.93;31.10;;;25.20;62.00;;;;;;4988354;28;20513;-65
2021/07/04 09:54:11;;;;;;;34.33;28.83;;;25.20;61.70;;;;;;4987404;28;20214;-66
2021/07/04 09:56:56;;;;;;;33.07;27.90;;;25.20;61.30;;;;;;4982465;28;20815;-65
2021/07/04 09:59:32;;;;;;;29.53;26.37;;;25.20;60.90;;;;;;4985693;28;20285;-66
2021/07/04 10:01:59;;;;;;;28.37;25.33;;;25.20;60.60;;;;;;4987982;28;20220;-67
2021/07/04 10:04:38;;;;;;;27.10;24.20;;;25.20;60.50;;;;;;4987243;28;20220;-68
2021/07/04 10:07:10;;;;;;;29.07;24.63;;;25.30;60.30;;;;;;4979640;28;20199;-68
2021/07/04 10:09:40;;;;;;;24.97;22.27;;;25.20;60.20;;;;;;4980249;28;20239;-66
2021/07/04 10:12:10;;;;;;;26.70;22.83;;;25.30;60.00;;;;;;4985473;28;20220;-65
2021/07/04 10:14:39;;;;;;;25.87;23.07;;;25.30;59.90;;;;;;4988863;28;20209;-64
2021/07/04 10:17:09;;;;;;;24.93;22.40;;;25.40;60.10;;;;;;4980254;28;20231;-67
2021/07/04 10:19:38;;;;;;;23.33;20.87;;;25.40;60.10;;;;;;4988921;28;20239;-66
2021/07/04 10:22:11;;;;;;;25.10;22.50;;;25.40;60.50;;;;;;4987441;28;20192;-66
2021/07/04 10:24:39;;;;;;;30.80;27.30;;;25.40;60.60;;;;;;4981289;28;20228;-63
2021/07/04 10:27:12;;;;;;;31.77;28.07;;;25.40;62.20;;;;;;4973245;28;20208;-63
2021/07/04 10:29:45;;;;;;;31.47;28.03;;;25.40;62.50;;;;;;4982900;28;20222;-64
2021/07/04 10:32:16;;;;;;;32.60;28.20;;;25.30;62.70;;;;;;4978589;28;20203;-63
2021/07/04 10:34:48;;;;;;;31.93;28.47;;;25.20;63.10;;;;;;4988427;28;20197;-63
2021/07/04 10:37:45;;;;;;;31.43;27.93;;;25.20;63.30;;;;;;4975836;28;20285;-63
2021/07/04 10:40:19;;;;;;;32.10;28.70;;;25.20;63.40;;;;;;4980485;28;20224;-64
2021/07/04 10:42:49;;;;;;;32.60;28.27;;;25.20;63.60;;;;;;4990133;28;20196;-65
2021/07/04 10:45:37;;;;;;;32.27;28.73;;;25.10;63.70;;;;;;4981961;28;20220;-65
2021/07/04 10:48:27;;;;;;;33.57;29.10;;;25.10;63.80;;;;;;4982552;28;20197;-65
2021/07/04 10:51:22;;;;;;;31.80;27.90;;;25.10;64.30;;;;;;4980961;28;20199;-63
2021/07/04 10:53:55;;;;;;;32.53;28.83;;;25.10;64.40;;;;;;4987097;28;20263;-63
2021/07/04 10:56:40;;;;;;;31.47;28.07;;;25.10;64.40;;;;;;4969940;28;20216;-63
2021/07/04 10:59:13;;;;;;;30.83;27.33;;;25.10;64.10;;;;;;4973100;28;20203;-63
2021/07/04 11:01:56;;;;;;;31.10;27.70;;;25.10;63.80;;;;;;4979971;28;20208;-64
2021/07/04 11:04:36;;;;;;;30.60;26.53;;;25.10;64.20;;;;;;4980623;28;20686;-66
2021/07/04 11:07:06;;;;;;;28.03;25.03;;;25.10;64.00;;;;;;4982168;28;20212;-64
2021/07/04 11:09:55;;;;;;;25.40;22.70;;;25.20;63.50;;;;;;4982204;28;20609;-65
2021/07/04 11:12:35;;;;;;;25.70;22.93;;;25.20;63.00;;;;;;4983846;28;20219;-66
2021/07/04 11:15:22;;;;;;;25.50;22.13;;;25.20;62.70;;;;;;4982895;28;20201;-67
2021/07/04 11:18:02;;;;;;;25.30;21.17;;;25.30;62.60;;;;;;4988434;28;20228;-67
2021/07/04 11:20:50;;;;;;;22.07;19.70;;;25.30;62.50;;;;;;4981872;28;20228;-65
2021/07/04 11:26:07;;;;;;;23.17;20.73;;;25.40;62.40;;;;;;4985185;28;20206;-66
2021/07/04 11:28:42;;;;;;;22.57;19.77;;;25.50;62.70;;;;;;4983364;28;20210;-65
2021/07/04 11:31:19;;;;;;;22.83;20.53;;;25.50;62.60;;;;;;4992165;28;20255;-66
2021/07/04 11:33:56;;;;;;;23.63;20.27;;;25.50;62.30;;;;;;4979304;28;20201;-67
2021/07/04 11:36:28;;;;;;;23.37;20.93;;;25.60;62.40;;;;;;4982697;28;20259;-67
2021/07/04 11:39:26;;;;;;;21.97;19.60;;;25.60;62.10;;;;;;4968987;28;20212;-66
2021/07/04 11:41:56;;;;;;;20.93;18.77;;;25.60;61.40;;;;;;4982269;28;20538;-66
2021/07/04 11:44:28;;;;;;;20.53;18.43;;;25.70;61.50;;;;;;4982015;28;20200;-66
2021/07/04 11:46:58;;;;;;;21.70;18.63;;;25.70;61.20;;;;;;4984649;28;20204;-66
2021/07/04 11:49:28;;;;;;;19.67;17.50;;;25.70;61.10;;;;;;4986374;28;20208;-66
2021/07/04 11:52:04;;;;;;;20.00;17.90;;;25.80;61.10;;;;;;4984150;28;20245;-67
2021/07/04 11:54:43;;;;;;;18.10;16.27;;;25.80;61.10;;;;;;4985265;28;20209;-66
2021/07/04 12:00:04;;;;;;;20.40;17.83;;;25.80;60.90;;;;;;4986279;28;20200;-66
2021/07/04 12:02:34;;;;;;;17.03;15.33;;;25.80;60.60;;;;;;4984621;28;20206;-67
2021/07/04 12:05:14;;;;;;;17.40;15.70;;;25.80;60.50;;;;;;4982062;28;20256;-66
2021/07/04 12:07:43;;;;;;;18.27;16.37;;;25.90;60.40;;;;;;4980044;28;20203;-65
2021/07/04 12:10:14;;;;;;;17.37;15.50;;;25.90;60.20;;;;;;4987174;28;20237;-66
2021/07/04 12:13:07;;;;;;;17.47;15.70;;;25.90;59.90;;;;;;4983751;28;20204;-66
2021/07/04 12:15:35;;;;;;;17.80;15.97;;;25.90;59.90;;;;;;4984610;28;20227;-65
2021/07/04 12:18:12;;;;;;;17.57;15.97;;;25.90;59.40;;;;;;4993279;28;20358;-65
2021/07/04 12:20:58;;;;;;;17.03;15.23;;;26.00;58.90;;;;;;4987200;28;20600;-64
2021/07/04 12:23:26;;;;;;;16.40;14.70;;;26.00;59.10;;;;;;4990400;28;20253;-71
2021/07/04 12:25:54;;;;;;;15.20;13.73;;;26.00;59.10;;;;;;4988774;28;20200;-68
2021/07/04 12:28:23;;;;;;;15.77;14.17;;;26.00;61.00;;;;;;4989184;28;20192;-69
2021/07/04 12:30:52;;;;;;;15.63;13.40;;;26.10;60.50;;;;;;4990726;28;20263;-68
2021/07/04 12:33:26;;;;;;;14.37;12.80;;;26.20;60.80;;;;;;4985811;28;20201;-71
2021/07/04 12:36:11;;;;;;;14.90;13.50;;;26.20;60.90;;;;;;4997528;28;20191;-69
2021/07/04 12:38:46;;;;;;;14.33;12.30;;;26.20;60.70;;;;;;4988508;28;20204;-69
2021/07/04 12:41:18;;;;;;;13.33;12.03;;;26.30;61.60;;;;;;4983478;28;20211;-68
2021/07/04 12:43:49;;;;;;;13.37;12.07;;;26.30;60.90;;;;;;4980531;28;20212;-68
2021/07/04 12:46:23;;;;;;;14.07;12.77;;;26.30;61.00;;;;;;4988756;28;20191;-68
2021/07/04 12:49:04;;;;;;;13.60;12.30;;;26.30;61.60;;;;;;4984212;28;20192;-69
2021/07/04 12:51:37;;;;;;;13.37;12.07;;;26.40;61.00;;;;;;4986670;28;20188;-69
2021/07/04 12:54:20;;;;;;;13.87;12.53;;;26.40;61.00;;;;;;4987313;28;20218;-68
2021/07/04 12:56:53;;;;;;;13.13;11.83;;;26.40;60.70;;;;;;4981155;28;20225;-69
2021/07/04 12:59:29;;;;;;;13.97;11.97;;;26.50;60.60;;;;;;4983895;28;20709;-71
2021/07/04 13:02:03;;;;;;;12.77;11.57;;;26.50;60.50;;;;;;4970426;28;20215;-68
2021/07/04 13:04:48;;;;;;;13.20;11.90;;;26.50;60.70;;;;;;4982355;28;20769;-68